Latest Weather Observations for Parafield

IDS60901

Issued at 7:11 am CST Thursday 3 September 2015 (issued every 10 minutes, with the page automatically refreshed every 10 minutes)

About weather observations | Map of Adelaide area stations | Latest observations for Adelaide area | Other Formats
Station Details ID: 023013 Name: PARAFIELD AIRPORT Lat: -34.80 Lon: 138.63 Height: 9.5 m
Data from the previous 72 hours. | See also: Recent months at Parafield
Date/Time
CST
Tmp

°C
App
Tmp
°C
Dew
Point
°C
Rel
Hum
%
Delta-T

°C
Wind Press
QNH
hPa
Press
MSL
hPa
Rain
since
9 am
mm
Dir
 
Spd
km/h
Gust
km/h
Spd
kts
Gust
kts
03/07:00am 11.9 9.6 10.5 91 0.7 SSW 13 15 7 8 1016.9 1016.9 12.4
03/06:53am 11.9 9.6 10.5 91 0.7 SW 13 17 7 9 1016.8 1016.8 12.4
03/06:30am 11.9 9.2 10.5 91 0.7 SSW 15 19 8 10 1016.6 1016.6 12.4
03/06:00am 10.8 9.1 9.9 94 0.5 S 9 13 5 7 1016.0 1016.0 12.4
03/05:30am 10.1 9.9 9.2 94 0.4 CALM 0 0 0 0 1015.3 1015.3 12.4
03/05:27am 10.1 9.9 9.2 94 0.4 CALM 0 0 0 0 1015.2 1015.2 12.4
03/05:12am 10.0 9.4 9.1 94 0.4 E 2 6 1 3 1014.8 1014.8 12.4
03/05:00am 10.1 9.6 9.2 94 0.4 SSE 2 7 1 4 1014.6 1014.6 12.4
03/04:30am 9.9 9.7 9.0 94 0.4 CALM 0 0 0 0 1014.3 1014.3 12.4
03/04:24am 9.7 9.1 8.8 94 0.4 S 2 6 1 3 1014.3 1014.3 12.4
03/04:00am 9.6 7.9 8.5 93 0.5 S 7 9 4 5 1013.8 1013.8 12.4
03/03:30am 9.6 7.9 8.4 92 0.6 SW 7 9 4 5 1013.4 1013.4 12.4
03/03:00am 10.0 7.6 8.8 92 0.6 SW 11 13 6 7 1012.9 1012.9 12.4
03/02:30am 9.3 7.4 7.7 90 0.8 SSW 7 7 4 4 1012.5 1012.5 12.4
03/02:00am 9.8 7.7 8.2 90 0.8 SW 9 11 5 6 1012.4 1012.4 12.4
03/01:30am 10.3 7.4 8.2 87 1.0 SW 13 17 7 9 1012.1 1012.1 12.4
03/01:00am 11.2 7.7 8.9 86 1.1 SW 17 24 9 13 1011.9 1011.9 12.4
03/12:30am 9.7 6.1 8.3 91 0.7 WSW 17 20 9 11 1011.5 1011.5 12.4
03/12:00am 8.8 5.0 7.7 93 0.5 WSW 17 19 9 10 1010.5 1010.5 12.4
 
Date/Time
CST
Tmp

°C
App
Tmp
°C
Dew
Point
°C
Rel
Hum
%
Delta-T

°C
Wind Press
QNH
hPa
Press
MSL
hPa
Rain
since
9 am
mm
Dir
 
Spd
km/h
Gust
km/h
Spd
kts
Gust
kts
02/11:30pm 8.9 6.6 7.4 90 0.7 WSW 9 13 5 7 1010.0 1010.0 12.4
02/11:00pm 9.8 6.9 8.1 89 0.8 SSW 13 19 7 10 1009.8 1009.8 12.4
02/10:30pm 10.3 7.0 7.9 85 1.2 SSW 15 20 8 11 1009.3 1009.3 12.4
02/10:00pm 10.6 5.7 8.4 86 1.1 SSW 24 33 13 18 1008.8 1008.8 12.4
02/09:30pm 10.6 6.1 8.4 86 1.1 SSW 22 30 12 16 1007.9 1007.9 12.4
02/09:00pm 10.3 6.3 8.2 87 1.0 SW 19 24 10 13 1007.0 1007.0 12.4
02/08:30pm 10.1 6.1 8.2 88 0.9 SSW 19 22 10 12 1006.0 1006.0 12.2
02/08:00pm 10.3 6.7 8.4 88 0.9 S 17 20 9 11 1004.8 1004.8 12.2
02/07:30pm 10.6 7.5 8.9 89 0.8 SSW 15 20 8 11 1004.1 1004.1 12.2
02/07:00pm 10.9 7.1 9.2 89 0.8 S 19 26 10 14 1003.1 1003.1 12.2
02/06:30pm 11.3 8.0 9.6 89 0.9 SSE 17 24 9 13 1002.1 1002.1 12.2
02/06:00pm 11.0 8.5 9.8 92 0.6 ESE 13 17 7 9 1001.2 1001.2 12.2
02/05:30pm 11.0 7.4 9.8 92 0.6 ENE 19 24 10 13 1000.5 1000.5 11.2
02/05:00pm 11.3 8.9 10.0 92 0.7 NE 13 17 7 9 1000.2 1000.2 9.2
02/04:30pm 11.4 8.2 10.1 92 0.7 NNE 17 24 9 13 1000.3 1000.3 7.6
02/04:25pm 11.4 7.8 10.0 91 0.7 NNE 19 28 10 15 1000.3 1000.3 7.2
02/04:00pm 11.8 8.2 10.0 89 0.9 NE 19 26 10 14 1000.1 1000.1 6.2
02/03:40pm 11.4 8.6 10.0 91 0.7 NNE 15 22 8 12 1000.3 1000.3 6.2
02/03:39pm 11.4 8.6 10.0 91 0.7 NE 15 22 8 12 1000.3 1000.3 6.2
02/03:30pm 11.4 8.6 10.0 91 0.7 NE 15 22 8 12 1000.3 1000.3 6.2
02/03:25pm 11.4 8.2 10.0 91 0.7 NE 17 22 9 12 1000.4 1000.4 6.0
02/03:00pm 11.5 8.0 10.1 91 0.7 NNE 19 22 10 12 1000.7 1000.7 5.0
02/02:30pm 11.4 8.1 9.7 89 0.9 N 17 24 9 13 1001.0 1001.0 3.6
02/02:00pm 11.5 7.5 9.2 86 1.2 N 20 24 11 13 1001.2 1001.2 2.4
02/01:30pm 11.5 7.4 8.7 83 1.4 NNW 20 30 11 16 1001.6 1001.6 1.6
02/01:00pm 12.3 7.9 8.8 79 1.7 NNW 22 33 12 18 1002.0 1002.0 1.0
02/12:30pm 13.1 8.3 9.0 76 2.1 NNW 24 43 13 23 1002.5 1002.5 1.0
02/12:00pm 12.1 7.3 8.9 81 1.6 NNW 24 37 13 20 1003.0 1003.0 1.0
02/11:30am 13.4 8.8 9.6 78 2.0 N 24 35 13 19 1003.6 1003.6 0.8
02/11:00am 11.3 5.7 8.9 85 1.2 NNW 28 39 15 21 1004.2 1004.2 0.8
02/10:30am 12.3 7.2 9.1 81 1.6 N 26 33 14 18 1004.2 1004.2 0.2
02/10:00am 13.4 7.6 8.0 70 2.7 N 28 39 15 21 1004.7 1004.7 0.0
02/09:30am 12.9 7.2 8.2 73 2.3 N 28 43 15 23 1005.2 1005.2 0.0
02/09:22am 12.6 6.5 8.1 74 2.2 N 30 43 16 23 1005.4 1005.4 0.0
02/09:06am 12.8 7.2 8.7 76 2.0 N 28 35 15 19 1005.5 1005.5 0.0
02/09:00am 12.7 7.8 8.6 76 2.1 N 24 35 13 19 1005.6 1005.6 7.4
02/08:30am 11.4 6.4 8.1 80 1.6 N 24 30 13 16 1005.4 1005.4 7.4
02/08:00am 10.7 6.5 8.1 84 1.3 NNE 20 28 11 15 1005.5 1005.5 7.4
02/07:30am 10.3 6.1 7.5 83 1.3 N 19 28 10 15 1005.3 1005.3 7.4
02/07:00am 10.6 6.5 7.8 83 1.4 N 19 24 10 13 1005.4 1005.4 7.4
02/06:30am 10.4 6.3 7.8 84 1.3 N 19 22 10 12 1005.1 1005.1 7.4
02/06:00am 10.6 6.6 8.2 85 1.2 N 19 26 10 14 1005.4 1005.4 7.4
02/05:30am 10.7 6.1 8.3 85 1.2 NNE 22 28 12 15 1005.3 1005.3 7.4
02/05:00am 10.7 6.6 8.5 86 1.1 N 20 33 11 18 1005.4 1005.4 7.4
02/04:30am 11.1 6.3 8.7 85 1.2 NNE 24 30 13 16 1005.3 1005.3 7.2
02/04:00am 11.0 7.0 9.1 88 0.9 NNE 20 28 11 15 1005.5 1005.5 7.2
02/03:30am 11.0 7.2 9.1 88 0.9 NNE 19 24 10 13 1006.0 1006.0 7.2
02/03:00am 11.0 7.2 9.1 88 0.9 NNE 19 24 10 13 1006.7 1006.7 6.8
02/02:30am 11.1 7.2 8.8 86 1.1 NNE 19 26 10 14 1006.7 1006.7 6.2
02/02:00am 10.9 7.5 9.0 88 0.9 NE 17 20 9 11 1007.2 1007.2 6.2
02/01:30am 11.1 6.7 9.0 87 1.0 NE 22 44 12 24 1007.7 1007.7 5.6
02/01:00am 10.9 7.5 9.3 90 0.8 NE 17 22 9 12 1007.7 1007.7 5.2
02/12:30am 10.8 8.2 9.2 90 0.8 NE 13 17 7 9 1007.9 1007.9 5.2
02/12:00am 11.1 8.4 9.0 87 1.0 NNE 13 22 7 12 1008.3 1008.3 3.6
 
Date/Time
CST
Tmp

°C
App
Tmp
°C
Dew
Point
°C
Rel
Hum
%
Delta-T

°C
Wind Press
QNH
hPa
Press
MSL
hPa
Rain
since
9 am
mm
Dir
 
Spd
km/h
Gust
km/h
Spd
kts
Gust
kts
01/11:30pm 12.2 8.2 8.3 77 1.9 N 19 32 10 17 1008.4 1008.4 1.4
01/11:00pm 13.1 9.0 8.0 71 2.5 NE 19 24 10 13 1007.9 1007.9 0.2
01/10:30pm 14.0 8.0 7.1 63 3.4 NNE 28 39 15 21 1008.0 1008.0 0.0
01/10:00pm 15.6 9.1 4.9 49 5.0 NNE 28 35 15 19 1007.7 1007.7 0.0
01/09:30pm 16.2 9.5 3.6 43 5.8 NNE 28 39 15 21 1007.4 1007.4 0.0
01/09:00pm 16.2 8.9 2.2 39 6.3 NNE 30 37 16 20 1007.4 1007.4 0.0
01/08:30pm 16.1 9.6 2.5 40 6.1 NNE 26 37 14 20 1007.3 1007.3 0.0
01/08:00pm 16.7 10.2 2.7 39 6.4 NE 26 35 14 19 1007.2 1007.2 0.0
01/07:30pm 15.8 10.9 4.2 46 5.4 NNE 19 24 10 13 1007.4 1007.4 0.0
01/07:00pm 15.8 11.4 4.8 48 5.2 NNE 17 22 9 12 1007.2 1007.2 0.0
01/06:30pm 17.0 12.0 4.7 44 5.8 NE 20 26 11 14 1007.0 1007.0 0.0
01/06:00pm 16.1 12.0 6.0 51 4.9 NE 17 20 9 11 1007.2 1007.2 0.0
01/05:30pm 16.3 12.7 6.7 53 4.7 NNE 15 19 8 10 1007.7 1007.7 0.0
01/05:00pm 16.4 14.0 6.8 53 4.7 N 9 13 5 7 1008.0 1008.0 0.0
01/04:30pm 16.8 13.4 6.0 49 5.3 NNE 13 17 7 9 1008.2 1008.2 0.0
01/04:00pm 17.3 12.9 4.9 44 5.9 N 17 24 9 13 1008.5 1008.5 0.0
01/03:30pm 17.9 11.7 4.5 41 6.4 N 26 35 14 19 1009.0 1009.0 0.0
01/03:00pm 18.2 13.6 5.8 44 6.1 N 19 26 10 14 1009.3 1009.3 0.0
01/02:30pm 18.6 15.3 8.0 50 5.4 N 15 26 8 14 1009.7 1009.7 0.0
01/02:00pm 18.0 15.6 8.6 54 4.9 N 11 20 6 11 1009.8 1009.8 0.0
01/01:30pm 18.5 15.3 8.5 52 5.2 N 15 20 8 11 1009.9 1009.9 0.0
01/01:00pm 18.6 14.1 6.8 46 5.9 NNE 20 28 11 15 1010.2 1010.2 0.0
01/12:30pm 19.3 15.1 7.4 46 6.1 NNE 19 26 10 14 1010.7 1010.7 0.0
01/12:00pm 19.5 14.7 5.6 40 6.8 N 20 28 11 15 1011.3 1011.3 0.0
01/11:30am 18.8 14.2 6.6 45 6.1 N 20 28 11 15 1011.9 1011.9 0.0
01/11:00am 17.3 13.8 7.4 52 5.0 NNE 15 20 8 11 1012.1 1012.1 0.0
01/10:30am 17.8 13.5 5.1 43 6.1 N 17 26 9 14 1012.6 1012.6 0.0
01/10:00am 17.5 13.2 5.4 45 5.8 NNE 17 20 9 11 1012.9 1012.9 0.0
01/09:30am 16.9 12.2 5.2 46 5.6 N 19 28 10 15 1013.1 1013.1 0.0
01/09:00am 16.2 13.3 6.6 53 4.7 NNE 11 17 6 9 1013.2 1013.2 0.0
01/08:30am 15.0 11.9 7.1 59 3.9 NE 13 15 7 8 1013.2 1013.2 0.0
01/08:00am 14.0 10.5 7.1 63 3.4 NE 15 17 8 9 1013.2 1013.2 0.0
01/07:30am 12.8 10.6 7.7 71 2.5 NE 9 11 5 6 1013.5 1013.5 0.0
01/07:00am 12.4 10.4 6.9 69 2.6 NE 7 9 4 5 1013.5 1013.5 0.0
01/06:30am 11.6 9.5 6.7 72 2.3 N 7 9 4 5 1013.1 1013.1 0.0
01/06:00am 12.2 9.2 6.0 66 2.9 NE 11 13 6 7 1012.6 1012.6 0.0
01/05:30am 11.8 9.2 5.9 67 2.8 NE 9 11 5 6 1012.6 1012.6 0.0
01/05:00am 11.5 7.8 4.5 62 3.2 NE 13 13 7 7 1012.7 1012.7 0.0
01/04:30am 12.4 9.1 4.6 59 3.6 NE 11 13 6 7 1012.9 1012.9 0.0
01/04:00am 12.6 8.9 4.6 58 3.7 NE 13 15 7 8 1013.1 1013.1 0.0
01/03:30am 13.9 9.5 4.8 54 4.2 NE 17 20 9 11 1013.2 1013.2 0.0
01/03:00am 12.9 9.3 4.8 58 3.7 NNE 13 19 7 10 1013.5 1013.5 0.0
01/02:30am 11.4 7.4 4.8 64 3.0 NE 15 19 8 10 1014.1 1014.1 0.0
01/02:00am 10.5 7.1 4.0 64 2.9 NNE 11 15 6 8 1014.6 1014.6 0.0
01/01:30am 12.2 8.1 4.2 58 3.6 NE 15 17 8 9 1014.7 1014.7 0.0
01/01:00am 13.5 8.7 4.4 54 4.2 NE 19 22 10 12 1014.7 1014.7 0.0
01/12:30am 13.5 9.1 4.9 56 4.0 NE 17 20 9 11 1015.1 1015.1 0.0
01/12:00am 12.7 8.4 5.1 60 3.5 NE 17 20 9 11 1015.2 1015.2 0.0
 
Date/Time
CST
Tmp

°C
App
Tmp
°C
Dew
Point
°C
Rel
Hum
%
Delta-T

°C
Wind Press
QNH
hPa
Press
MSL
hPa
Rain
since
9 am
mm
Dir
 
Spd
km/h
Gust
km/h
Spd
kts
Gust
kts
31/11:30pm 13.3 9.1 5.5 59 3.7 NE 17 20 9 11 1015.5 1015.5 0.0
31/11:00pm 11.1 7.2 5.2 67 2.7 NE 15 17 8 9 1015.8 1015.8 0.0
31/10:30pm 11.4 7.4 5.1 65 2.9 NE 15 17 8 9 1016.3 1016.3 0.0
31/10:00pm 11.3 7.3 5.0 65 2.9 NE 15 17 8 9 1016.5 1016.5 0.0
31/09:30pm 11.3 8.0 4.7 64 3.0 ENE 11 13 6 7 1016.6 1016.7 0.0
31/09:00pm 11.4 8.1 4.8 64 3.0 ENE 11 13 6 7 1016.7 1016.8 0.0
31/08:30pm 10.4 9.3 5.2 70 2.4 CALM 0 0 0 0 1017.1 1017.2 0.0
31/08:00pm 12.2 11.2 5.6 64 3.1 CALM 0 0 0 0 1017.1 1017.2 0.0
31/07:30pm 10.5 8.1 5.3 70 2.4 ENE 7 9 4 5 1016.9 1017.0 0.0
31/07:00pm 11.5 8.8 5.8 68 2.7 ENE 9 15 5 8 1016.6 1016.7 0.0
31/06:30pm 13.4 10.6 5.1 57 3.9 ENE 9 11 5 6 1016.4 1016.4 0.0
31/06:00pm 15.1 12.9 5.3 52 4.6 NNE 6 7 3 4 1016.4 1016.4 0.0
31/05:30pm 17.3 16.0 4.3 42 6.1 CALM 0 0 0 0 1016.5 1016.5 0.0
31/05:00pm 18.9 16.9 6.1 43 6.3 W 6 7 3 4 1016.7 1016.8 0.0
31/04:30pm 19.1 16.5 4.1 37 7.1 W 7 11 4 6 1016.9 1017.0 0.0
31/04:00pm 18.8 14.5 3.4 36 7.2 W 15 20 8 11 1017.1 1017.2 0.0
31/03:30pm 19.4 16.2 5.1 39 6.9 W 11 17 6 9 1017.1 1017.2 0.0
31/03:00pm 19.7 17.0 5.4 39 7.0 NNW 9 15 5 8 1017.3 1017.4 0.0
31/02:30pm 19.3 15.9 5.7 41 6.7 W 13 20 7 11 1017.7 1017.8 0.0
31/02:00pm 19.4 16.9 4.0 36 7.3 SE 6 9 3 5 1017.9 1018.0 0.0
31/01:30pm 18.6 14.7 3.6 37 7.0 SW 13 19 7 10 1018.1 1018.2 0.0
31/01:00pm 18.9 14.3 3.5 36 7.2 W 17 20 9 11 1018.7 1018.8 0.0
31/12:30pm 18.1 14.6 3.6 38 6.8 NNW 11 17 6 9 1019.3 1019.4 0.0
31/12:00pm 18.6 16.1 6.4 45 6.0 NNW 9 13 5 7 1019.7 1019.8 0.0
31/11:30am 17.7 14.9 5.0 43 6.1 N 9 13 5 7 1020.1 1020.2 0.0
31/11:00am 16.9 14.0 4.6 44 5.8 N 9 13 5 7 1020.5 1020.6 0.0
31/10:30am 15.9 12.2 4.3 46 5.4 N 13 19 7 10 1020.8 1020.9 0.0
31/10:00am 15.4 11.6 3.9 46 5.3 N 13 20 7 11 1020.9 1021.0 0.0
31/09:30am 15.3 11.6 4.4 48 5.0 N 13 17 7 9 1021.1 1021.2 0.0
31/09:00am 14.5 11.0 3.3 47 5.0 NNE 11 17 6 9 1021.0 1021.1 0.0
31/08:30am 13.0 9.3 4.7 57 3.8 NE 13 15 7 8 1021.0 1021.1 0.0
31/08:00am 10.6 8.5 6.0 73 2.1 NE 6 7 3 4 1021.0 1021.1 0.0
31/07:30am 5.5 3.7 3.3 86 0.9 NE 2 7 1 4 1020.9 1021.0 0.0

Latest Capital City Observations: Canberra | Sydney | Melbourne | Brisbane | Adelaide | Perth | Hobart | Darwin

Other Formats:

Comma delimited format used in spreadsheet applications
http://www.bom.gov.au/fwo/IDS60901/IDS60901.95677.axf

JavaScript Object Notation format (JSON) in row-major order
http://www.bom.gov.au/fwo/IDS60901/IDS60901.95677.json